• Join FlightAware (Why Join?)
  • Login
  • US Flag 
08:39PM EDT


 

Airport Tracker/Info


-or-


 

Live Flight TrackerFlight Track Log ✈ UAL582 ✈ 19-May-2013 ✈ KORD - KSNA

Flight Track Log - Related Links

Times and Time Zones

All times are in EDT time to prevent confusion due to time zone crossing. See the UAL582 flight status page for this flight to view local times or setup timezone preferences in your user account.

Time Position Orientation Groundspeed Altitude Reporting Facility
EDT Latitude Longitude Course Direction KTS MPH feet Rate Location/Type
08:15PM 41.9167 -87.9000 270° West 181 208 2,600  Level Chicago TRACON
08:17PM 41.7992 -87.9754 200° South  Level FlightAware Approximate
08:24PM 41.1772 -88.2725 197° South  Level FlightAware Approximate
08:25PM 41.0867 -88.3087 197° South  Level FlightAware Approximate
08:26PM 40.9964 -88.3460 197° South  Level FlightAware Approximate
08:27PM 40.9063 -88.3835 197° South  Level FlightAware Approximate
08:28PM 40.8180 -88.4278 203° Southwest  Level FlightAware Approximate
08:29PM 40.7303 -88.4741 196° South  Level FlightAware Approximate
08:30PM 40.6394 -88.5082 196° South  Level FlightAware Approximate
08:31PM 40.5526 -88.5542 198° South  Level FlightAware Approximate
08:32PM 40.4629 -88.5935 198° South  Level FlightAware Approximate
08:33PM 40.3731 -88.6326 198° South  Level FlightAware Approximate
08:34PM 40.2915 -88.6918 217° Southwest  Level FlightAware Approximate
08:35PM 40.2182 -88.7697 225° Southwest  Level FlightAware Approximate
08:36PM 40.1512 -88.8570 225° Southwest  Level FlightAware Approximate
08:37PM 40.0841 -88.9441 225° Southwest  Level FlightAware Approximate
08:38PM 40.0207 -89.0357 229° Southwest  Level FlightAware Approximate
08:39PM 39.9530 -89.1215 222° Southwest  Level FlightAware Approximate
08:40PM 39.8828 -89.2040 223° Southwest  Level FlightAware Approximate
08:41PM 39.8133 -89.2875 224° Southwest  Level FlightAware Approximate
08:42PM 39.7449 -89.3725 224° Southwest  Level FlightAware Approximate
08:43PM 39.6764 -89.4572 224° Southwest  Level FlightAware Approximate
08:44PM 39.6079 -89.5418 224° Southwest  Level FlightAware Approximate
08:45PM 39.5393 -89.6262 224° Southwest  Level FlightAware Approximate
08:46PM 39.4707 -89.7105 223° Southwest  Level FlightAware Approximate
08:47PM 39.4020 -89.7946 223° Southwest  Level FlightAware Approximate
08:48PM 39.3332 -89.8785 223° Southwest  Level FlightAware Approximate
08:49PM 39.2644 -89.9623 223° Southwest  Level FlightAware Approximate
08:50PM 39.1957 -90.0461 224° Southwest  Level FlightAware Approximate
08:51PM 39.1271 -90.1301 224° Southwest  Level FlightAware Approximate
08:52PM 39.0585 -90.2138 223° Southwest  Level FlightAware Approximate
08:53PM 38.9897 -90.2974 223° Southwest  Level FlightAware Approximate
08:54PM 38.9210 -90.3808 223° Southwest  Level FlightAware Approximate
08:55PM 38.8521 -90.4641 223° Southwest  Level FlightAware Approximate
08:56PM 38.7884 -90.5597 230° Southwest  Level FlightAware Approximate
08:57PM 38.7248 -90.6554 230° Southwest  Level FlightAware Approximate
08:58PM 38.6611 -90.7510 230° Southwest  Level FlightAware Approximate
08:59PM 38.5973 -90.8464 229° Southwest  Level FlightAware Approximate
09:00PM 38.5335 -90.9416 229° Southwest  Level FlightAware Approximate
09:01PM 38.4689 -91.0359 229° Southwest  Level FlightAware Approximate
09:02PM 38.4040 -91.1298 229° Southwest  Level FlightAware Approximate
09:03PM 38.3390 -91.2234 229° Southwest  Level FlightAware Approximate
09:04PM 38.2739 -91.3170 228° Southwest  Level FlightAware Approximate
09:05PM 38.2087 -91.4103 228° Southwest  Level FlightAware Approximate
09:06PM 38.1435 -91.5035 228° Southwest  Level FlightAware Approximate
09:07PM 38.0782 -91.5965 228° Southwest  Level FlightAware Approximate
09:08PM 38.0129 -91.6894 228° Southwest  Level FlightAware Approximate
09:09PM 37.9474 -91.7820 228° Southwest  Level FlightAware Approximate
09:10PM 37.8819 -91.8746 228° Southwest  Level FlightAware Approximate
09:11PM 37.8163 -91.9669 228° Southwest  Level FlightAware Approximate
09:12PM 37.7507 -92.0591 228° Southwest  Level FlightAware Approximate
09:13PM 37.6849 -92.1511 228° Southwest  Level FlightAware Approximate
09:14PM 37.6191 -92.2430 228° Southwest  Level FlightAware Approximate
09:15PM 37.5533 -92.3347 228° Southwest  Level FlightAware Approximate
09:16PM 37.4873 -92.4262 228° Southwest  Level FlightAware Approximate
09:17PM 37.4213 -92.5176 228° Southwest  Level FlightAware Approximate
09:18PM 37.3552 -92.6088 228° Southwest  Level FlightAware Approximate
09:19PM 37.2891 -92.6999 228° Southwest  Level FlightAware Approximate
09:20PM 37.2229 -92.7908 228° Southwest  Level FlightAware Approximate
09:21PM 37.1566 -92.8815 228° Southwest  Level FlightAware Approximate
09:22PM 37.0902 -92.9721 227° Southwest  Level FlightAware Approximate
09:23PM 37.0238 -93.0625 227° Southwest  Level FlightAware Approximate
09:24PM 36.9573 -93.1528 227° Southwest  Level FlightAware Approximate
09:25PM 36.8907 -93.2429 227° Southwest  Level FlightAware Approximate
09:26PM 36.8241 -93.3328 227° Southwest  Level FlightAware Approximate
09:27PM 36.7574 -93.4226 227° Southwest  Level FlightAware Approximate
09:28PM 36.6906 -93.5122 227° Southwest  Level FlightAware Approximate
09:29PM 36.6237 -93.6016 227° Southwest  Level FlightAware Approximate
09:30PM 36.5566 -93.6907 227° Southwest  Level FlightAware Approximate
09:30PM 41.9167 -87.9333 232° Southwest 244 281 3,300  Level Chicago TRACON
09:31PM 36.4838 -93.7871 227° Southwest  Level FlightAware Approximate
09:32PM 36.4109 -93.8834 227° Southwest  Level FlightAware Approximate
09:32PM 41.8306 -88.0006 210° Southwest 254 292 7,000  Level Chicago Center
09:33PM 36.3379 -93.9794 227° Southwest  Level FlightAware Approximate
09:33PM 41.7583 -88.0283 196° South 269 310 9,500  Level Chicago Center
09:34PM 36.2649 -94.0753 227° Southwest  Level FlightAware Approximate
09:34PM 41.6856 -88.0600 198° South 276 318 11,800  Level Chicago Center
09:35PM 36.1963 -94.1759 232° Southwest  Level FlightAware Approximate
09:35PM 41.6106 -88.0925 198° South 285 328 13,500  Level Chicago Center
09:36PM 36.1310 -94.2799 232° Southwest  Level FlightAware Approximate
09:36PM 41.4972 -88.1417 198° South 369 425 14,800  Level Chicago Center
09:37PM 41.3903 -88.1875 198° South 416 479 17,200 2,460 Climbing Chicago Center
09:38PM 41.2803 -88.2361 198° South 424 488 19,900 2,340 Climbing Chicago Center
09:39PM 41.1653 -88.2889 199° South 437 503 22,000 1,680 Climbing Chicago Center
09:40PM 41.0461 -88.3433 199° South 453 521 23,400 900 Climbing Chicago Center
09:41PM 40.9233 -88.3975 198° South 465 535 23,900 480 Climbing Chicago Center
09:42PM 40.7769 -88.4742 202° Southwest 476 548 24,400 660 Climbing Chicago Center
09:43PM 40.6742 -88.5853 219° Southwest 478 550 25,300 780 Climbing Chicago Center
09:44PM 40.5728 -88.6953 220° Southwest 475 547 26,000 720 Climbing Chicago Center
09:45PM 40.4703 -88.8053 219° Southwest 477 549 26,800 780 Climbing Chicago Center
09:46PM 40.3747 -88.9061 219° Southwest 478 550 27,600 780 Climbing Chicago Center
09:47PM 40.2731 -89.0147 219° Southwest 473 544 28,400 780 Climbing Chicago Center
09:48PM 40.1711 -89.1228 219° Southwest 470 541 29,300 900 Climbing Chicago Center
09:49PM 40.0686 -89.2311 219° Southwest 467 537 30,100 900 Climbing Kansas City Center
09:50PM 39.9678 -89.3372 219° Southwest 465 535 31,000 720 Climbing Kansas City Center
09:51PM 39.8683 -89.4419 219° Southwest 459 528 31,600 780 Climbing Kansas City Center
09:52PM 39.7689 -89.5461 219° Southwest 458 527 32,600 780 Climbing Kansas City Center
09:53PM 39.6758 -89.6417 218° Southwest 451 519 33,300 600 Climbing Kansas City Center
09:54PM 39.5803 -89.7425 219° Southwest 446 513 33,900 300 Climbing Kansas City Center
09:55PM 39.4644 -89.8631 219° Southwest 445 512 34,000  Climbing Kansas City Center
09:56PM 39.3689 -89.9628 219° Southwest 444 511 34,000  Level Kansas City Center
09:57PM 39.2733 -90.0617 219° Southwest 441 507 34,000  Level Kansas City Center
09:58PM 39.1761 -90.1606 218° Southwest 445 512 34,000  Level Kansas City Center
09:59PM 39.0797 -90.2606 219° Southwest 447 514 34,000  Level Kansas City Center
10:00PM 38.9822 -90.3606 219° Southwest 450 518 34,000  Level Kansas City Center
10:01PM 38.8808 -90.4669 219° Southwest 447 514 34,100  Climbing Kansas City Center
10:02PM 38.7944 -90.5828 226° Southwest 457 526 34,000 -60 Descending Kansas City Center
10:03PM 38.7053 -90.7125 229° Southwest 444 511 34,000  Level Kansas City Center
10:04PM 38.6261 -90.8256 228° Southwest 433 498 34,000  Level Kansas City Center
10:05PM 38.5475 -90.9406 229° Southwest 431 496 34,000  Level Kansas City Center
10:07PM 38.4681 -91.0578 229° Southwest 436 502 34,000  Level Kansas City Center
10:08PM 38.3875 -91.1731 228° Southwest 437 503 34,000  Level Kansas City Center
10:09PM 38.3056 -91.2903 228° Southwest 442 509 34,000  Level Kansas City Center
10:10PM 38.2100 -91.4261 228° Southwest 444 511 34,000  Level Kansas City Center
10:11PM 38.1244 -91.5386 226° Southwest 441 507 34,000  Level Kansas City Center
10:12PM 38.0242 -91.6406 219° Southwest 447 514 34,000  Level Kansas City Center
10:13PM 37.9267 -91.7414 219° Southwest 448 516 34,000  Level Kansas City Center
10:14PM 37.8306 -91.8425 220° Southwest 446 513 34,000  Level Kansas City Center
10:15PM 37.7322 -91.9442 219° Southwest 447 514 34,000  Level Kansas City Center
10:16PM 37.6331 -92.0464 219° Southwest 453 521 34,000  Level Kansas City Center
10:17PM 37.5361 -92.1461 219° Southwest 448 516 34,000  Level Kansas City Center
10:18PM 37.4414 -92.2456 220° Southwest 442 509 34,000 -60 Level Kansas City Center
10:19PM 37.3458 -92.3417 219° Southwest 438 504 33,900  Descending Kansas City Center
10:20PM 37.2500 -92.4383 219° Southwest 438 504 34,000  Climbing Kansas City Center
10:21PM 37.1572 -92.5331 219° Southwest 432 497 34,000  Level Kansas City Center
10:22PM 37.0608 -92.6294 219° Southwest 435 501 34,000  Level Kansas City Center
10:23PM 36.9639 -92.7267 219° Southwest 440 506 34,000  Level Kansas City Center
10:24PM 36.8647 -92.8275 219° Southwest 448 516 34,000  Level Kansas City Center
10:25PM 36.7594 -92.9336 219° Southwest 460 529 34,000  Level Memphis Center
10:26PM 36.6636 -93.0342 220° Southwest 455 524 34,000  Level Memphis Center
10:27PM 36.5656 -93.1292 218° Southwest 455 524 34,000  Level Memphis Center
10:28PM 36.4675 -93.2264 219° Southwest 455 524 34,000  Level Memphis Center
10:29PM 36.3694 -93.3208 218° Southwest 455 524 34,000  Level Memphis Center
10:30PM 36.2711 -93.4178 218° Southwest 455 524 34,000  Level Memphis Center
10:31PM 36.1753 -93.5092 218° Southwest 455 524 34,000  Level Memphis Center
10:32PM 36.0681 -93.6156 219° Southwest 455 524 34,000  Level Memphis Center
10:33PM 35.9719 -93.7092 218° Southwest 455 524 34,000  Level Memphis Center
10:34PM 35.8756 -93.8028 218° Southwest 455 524 34,000  Level Memphis Center
10:35PM 35.7789 -93.8958 218° Southwest 455 524 34,000 -300 Level Memphis Center
10:36PM 35.6883 -94.0044 224° Southwest 455 524 33,400 -720 Descending Memphis Center
10:37PM 35.6056 -94.1183 228° Southwest 454 522 32,600 -720 Descending Memphis Center
10:38PM 35.5189 -94.2267 226° Southwest 454 522 32,000 -240 Descending Memphis Center
10:39PM 35.3886 -94.3911 226° Southwest 450 518 32,000  Level Fort Worth Center
10:40PM 35.3036 -94.4983 226° Southwest 445 512 32,000  Level Fort Worth Center
10:41PM 35.2397 -94.6228 238° Southwest 439 505 32,000  Level Fort Worth Center
10:42PM 35.1925 -94.7564 247° West 428 493 32,000  Level Fort Worth Center
10:43PM 35.1556 -94.8919 252° West 422 486 32,000  Level Fort Worth Center
10:44PM 35.1167 -95.0253 250° West 422 486 32,000  Level Fort Worth Center
10:45PM 35.0753 -95.1608 250° West 428 493 32,000  Level Fort Worth Center
10:46PM 35.0339 -95.2964 250° West 434 499 32,000  Level Fort Worth Center
10:48PM 34.9899 -95.4298 248° West  Level FlightAware Approximate
10:48PM 34.9547 -95.5642 248° West 429 494 32,000  Level Fort Worth Center
10:49PM 34.9128 -95.6967 249° West 429 494 32,000  Level Fort Worth Center
10:50PM 34.8686 -95.8292 248° West 429 494 32,000  Level Fort Worth Center
10:51PM 34.8286 -95.9642 250° West 429 494 32,000  Level Fort Worth Center
10:52PM 34.7861 -96.0964 249° West 429 494 32,000  Level Fort Worth Center
10:53PM 34.7458 -96.2283 250° West 429 494 32,000  Level Fort Worth Center
10:54PM 34.7053 -96.3653 250° West 429 494 32,000  Level Fort Worth Center
10:55PM 34.6625 -96.4997 249° West 429 494 32,000  Level Fort Worth Center
10:56PM 34.6217 -96.6314 249° West 429 494 32,000  Level Fort Worth Center
10:57PM 34.5764 -96.7728 249° West 429 494 32,000  Level Fort Worth Center
10:58PM 34.5353 -96.9094 250° West 429 494 32,000  Level Fort Worth Center
10:59PM 34.5089 -97.0481 257° West 429 494 32,000  Level Fort Worth Center
11:00PM 34.5153 -97.1917 273° West 426 490 32,000  Level Fort Worth Center
11:01PM 34.5175 -97.3303 271° West 426 490 32,000  Level Fort Worth Center
11:02PM 34.5197 -97.4767 271° West 426 490 32,000  Level Fort Worth Center
11:03PM 34.5236 -97.6203 272° West 426 490 32,000  Level Fort Worth Center
11:04PM 34.5275 -97.7639 272° West 426 490 32,000  Level Fort Worth Center
11:05PM 34.5292 -97.9075 271° West 426 490 32,000  Level Fort Worth Center
11:06PM 34.5328 -98.0486 272° West 421 484 32,000  Level Fort Worth Center
11:07PM 34.5339 -98.1925 271° West 421 484 32,000  Level Fort Worth Center
11:08PM 34.5350 -98.3361 271° West 421 484 32,000  Level Fort Worth Center
11:09PM 34.5381 -98.4772 272° West 421 484 32,000  Level Fort Worth Center
11:10PM 34.5411 -98.6136 272° West 421 484 32,000  Level Fort Worth Center
11:11PM 34.5417 -98.7572 270° West 421 484 32,000  Level Fort Worth Center
11:12PM 34.5422 -98.8933 270° West 421 484 32,000  Level Fort Worth Center
11:13PM 34.5447 -99.0319 271° West 421 484 32,000 180 Level Fort Worth Center
11:14PM 34.5428 -99.1656 269° West 411 473 32,400 600 Climbing Fort Worth Center
11:15PM 34.5428 -99.3044 270° West 411 473 33,200 660 Climbing Fort Worth Center
11:16PM 34.5450 -99.4406 271° West 411 473 33,800 360 Climbing Fort Worth Center
11:17PM 34.5447 -99.5767 270° West 411 473 34,000 60 Climbing Fort Worth Center
11:18PM 34.5444 -99.7178 270° West 411 473 34,000  Level Fort Worth Center
11:19PM 34.5464 -99.8339 271° West 404 465 34,000  Level Fort Worth Center
11:20PM 34.5467 -99.9169 270° West 405 466 34,000  Level Fort Worth Center
11:21PM 34.5439 -100.0531 269° West 417 480 34,000  Level Fort Worth Center
11:22PM 34.5450 -100.1669 271° West 405 466 34,000  Level Albuquerque Center
11:23PM 34.5439 -100.3308 270° West 405 466 34,000  Level Albuquerque Center
11:24PM 34.5433 -100.4669 270° West 404 465 34,000  Level Albuquerque Center
11:25PM 34.5428 -100.6042 270° West 406 467 34,000  Level Albuquerque Center
11:26PM 34.5411 -100.7397 269° West 404 465 34,000  Level Albuquerque Center
11:27PM 34.5400 -100.8778 269° West 407 468 34,000  Level Albuquerque Center
11:28PM 34.5381 -101.0147 269° West 407 468 34,000  Level Albuquerque Center
11:29PM 34.5361 -101.1508 269° West 404 465 34,000  Level Albuquerque Center
11:30PM 34.5350 -101.2897 269° West 408 470 34,000  Level Albuquerque Center
11:31PM 34.5342 -101.3725 269° West 409 471 34,000  Level Albuquerque Center
11:32PM 34.5314 -101.5108 269° West 409 471 34,000  Level Albuquerque Center
11:33PM 34.5286 -101.6464 269° West 405 466 34,000  Level Albuquerque Center
11:34PM 34.5272 -101.8119 269° West 406 467 34,000  Level Albuquerque Center
11:35PM 34.5236 -101.9475 268° West 403 464 34,000  Level Albuquerque Center
11:36PM 34.5222 -102.0811 269° West 399 459 34,000  Level Albuquerque Center
11:37PM 34.5192 -102.2142 268° West 395 455 34,000  Level Albuquerque Center
11:38PM 34.5169 -102.3478 269° West 396 456 34,000  Level Albuquerque Center
11:39PM 34.5131 -102.4814 268° West 396 456 34,000  Level Albuquerque Center
11:40PM 34.5097 -102.6147 268° West 396 456 34,000  Level Albuquerque Center
11:41PM 34.5067 -102.7669 269° West 394 453 34,000  Level Albuquerque Center
11:42PM 34.5031 -102.9019 268° West 395 455 34,000  Level Albuquerque Center
11:43PM 34.4994 -103.0361 268° West 395 455 34,000  Level Albuquerque Center
11:44PM 34.4961 -103.1714 268° West 397 457 34,000  Level Albuquerque Center
11:45PM 34.4922 -103.3072 268° West 398 458 34,000  Level Albuquerque Center
11:46PM 34.4894 -103.4394 269° West 393 452 34,000  Level Albuquerque Center
11:47PM 34.4847 -103.5753 268° West 394 453 34,000  Level Albuquerque Center
11:48PM 34.4794 -103.7136 267° West 402 463 34,000  Level Albuquerque Center
11:49PM 34.4739 -103.8503 267° West 403 464 34,000  Level Albuquerque Center
11:50PM 34.4697 -103.9889 268° West 405 466 34,000  Level Albuquerque Center
11:51PM 34.4653 -104.1264 268° West 405 466 34,000  Level Albuquerque Center
11:52PM 34.4611 -104.2619 268° West 402 463 34,000  Level Albuquerque Center
11:53PM 34.4561 -104.3950 267° West 395 455 34,000  Level Albuquerque Center
11:54PM 34.4500 -104.5319 267° West 398 458 34,000  Level Albuquerque Center
11:55PM 34.4458 -104.6664 268° West 397 457 34,000  Level Albuquerque Center
11:56PM 34.4400 -104.8011 267° West 396 456 34,000  Level Albuquerque Center
11:57PM 34.4336 -104.9353 267° West 395 455 34,000  Level Albuquerque Center
11:58PM 34.4289 -105.0675 268° West 391 450 34,000  Level Albuquerque Center
11:59PM 34.4231 -105.2008 267° West 391 450 34,000  Level Albuquerque Center
12:00AM 34.4156 -105.3558 267° West 391 450 34,000  Level Albuquerque Center
12:01AM 34.4092 -105.4883 267° West 390 449 34,000  Level Albuquerque Center
12:02AM 34.4031 -105.6200 267° West 389 448 34,000  Level Albuquerque Center
12:03AM 34.3964 -105.7511 267° West 387 445 34,000  Level Albuquerque Center
12:04AM 34.3903 -105.8828 267° West 388 447 34,000  Level Albuquerque Center
12:05AM 34.3839 -106.0133 267° West 387 445 34,000  Level Albuquerque Center
12:07AM 34.3767 -106.1442 266° West 387 445 34,000  Level Albuquerque Center
12:08AM 34.3689 -106.2700 266° West 391 450 34,000  Level Albuquerque Center
12:09AM 34.3617 -106.4025 266° West 393 452 34,000  Level Albuquerque Center
12:10AM 34.3542 -106.5342 266° West 392 451 34,000  Level Albuquerque Center
12:11AM 34.3464 -106.6653 266° West 390 449 34,000  Level Albuquerque Center
12:12AM 34.3394 -106.7994 266° West 396 456 34,000  Level Albuquerque Center
12:13AM 34.3436 -106.9361 272° West 403 464 34,000  Level Albuquerque Center
12:14AM 34.3494 -107.0689 273° West 398 458 34,000  Level Albuquerque Center
12:15AM 34.3550 -107.2019 273° West 395 455 34,000  Level Albuquerque Center
12:16AM 34.3619 -107.3583 273° West 390 449 34,000  Level Albuquerque Center
12:17AM 34.3672 -107.4886 273° West 386 444 34,000  Level Albuquerque Center
12:18AM 34.3725 -107.6181 273° West 385 443 34,000  Level Albuquerque Center
12:19AM 34.3772 -107.7475 273° West 385 443 34,000  Level Albuquerque Center
12:20AM 34.3836 -107.8794 273° West 389 448 34,000  Level Albuquerque Center
12:21AM 34.3883 -108.0092 273° West 388 447 34,000  Level Albuquerque Center
12:22AM 34.3925 -108.1411 272° West 391 450 34,000  Level Albuquerque Center
12:23AM 34.3972 -108.2722 273° West 390 449 34,000  Level Albuquerque Center
12:24AM 34.4019 -108.4061 272° West 395 455 34,000  Level Albuquerque Center
12:25AM 34.4069 -108.5419 273° West 392 451 34,000  Level Albuquerque Center
12:26AM 34.4117 -108.6878 272° West 389 448 34,000  Level Albuquerque Center
12:27AM 34.4156 -108.8136 272° West 389 448 34,000  Level Albuquerque Center
12:28AM 34.4192 -108.9392 272° West 389 448 34,000  Level Albuquerque Center
12:29AM 34.4233 -109.0864 272° West 390 449 34,000  Level Albuquerque Center
12:30AM 34.4297 -109.2128 274° West 392 451 34,000  Level Albuquerque Center
12:31AM 34.4436 -109.3608 277° West 393 452 34,000  Level Albuquerque Center
12:32AM 34.4544 -109.4875 276° West 393 452 34,000  Level Albuquerque Center
12:33AM 34.4650 -109.6125 276° West 392 451 34,000  Level Albuquerque Center
12:34AM 34.4764 -109.7614 275° West 395 455 34,000  Level Albuquerque Center
12:35AM 34.4861 -109.8878 275° West 394 453 34,000  Level Albuquerque Center
12:36AM 34.4825 -110.0158 268° West 395 455 34,000  Level Albuquerque Center
12:37AM 34.4764 -110.1625 267° West 392 451 34,000  Level Albuquerque Center
12:38AM 34.4706 -110.2906 267° West 395 455 34,000  Level Albuquerque Center
12:39AM 34.4642 -110.4353 267° West 401 461 34,000  Level Albuquerque Center
12:40AM 34.4611 -110.5719 268° West 407 468 34,000  Level Albuquerque Center
12:41AM 34.4533 -110.7047 266° West 401 461 34,000  Level Albuquerque Center
12:42AM 34.4447 -110.8375 266° West 399 459 34,000  Level Albuquerque Center
12:43AM 34.4383 -110.9697 267° West 397 457 34,000  Level Albuquerque Center
12:44AM 34.4317 -111.1033 267° West 397 457 34,000  Level Albuquerque Center
12:45AM 34.4258 -111.2386 267° West 402 463 34,000  Level Albuquerque Center
12:46AM 34.4181 -111.3722 266° West 401 461 34,000  Level Albuquerque Center
12:47AM 34.4117 -111.5056 267° West 401 461 34,000  Level Albuquerque Center
12:48AM 34.4047 -111.6406 266° West 404 465 34,000  Level Albuquerque Center
12:49AM 34.3953 -111.8036 266° West 407 468 34,000  Level Albuquerque Center
12:50AM 34.3875 -111.9372 266° West 405 466 34,000  Level Albuquerque Center
12:51AM 34.3797 -112.0717 266° West 404 465 34,000  Level Albuquerque Center
12:52AM 34.3728 -112.2069 266° West 406 467 34,000  Level Albuquerque Center
12:53AM 34.3642 -112.3431 266° West 407 468 34,000  Level Albuquerque Center
12:54AM 34.3561 -112.4808 266° West 411 473 34,000  Level Albuquerque Center
12:55AM 34.3483 -112.6183 266° West 412 474 34,000  Level Albuquerque Center
12:56AM 34.3394 -112.7553 266° West 411 473 34,000  Level Albuquerque Center
12:57AM 34.3311 -112.8950 266° West 415 478 34,000  Level Albuquerque Center
12:58AM 34.3222 -113.0331 266° West 415 478 34,000  Level Albuquerque Center
12:59AM 34.3128 -113.1722 265° West 415 478 34,000  Level Albuquerque Center
01:00AM 34.3006 -113.3408 265° West 420 483 34,000  Level Albuquerque Center
01:01AM 34.2917 -113.4806 266° West 419 482 34,000  Level Albuquerque Center
01:02AM 34.2817 -113.6206 265° West 418 481 34,000  Level Albuquerque Center
01:03AM 34.2708 -113.7450 264° West 419 482 34,000  Level Albuquerque Center
01:05AM 34.2594 -113.9133 265° West 418 481 34,000  Level Albuquerque Center
01:06AM 34.2508 -114.0525 266° West 417 480 34,000  Level Albuquerque Center
01:07AM 34.2394 -114.1931 264° West 419 482 34,000  Level Albuquerque Center
01:08AM 34.2292 -114.3294 265° West 413 475 34,000  Level Albuquerque Center
01:09AM 34.2181 -114.4889 265° West 418 481 34,000 -60 Level Los Angeles Center
01:10AM 34.2081 -114.6272 265° West 416 479 33,900 -60 Descending Los Angeles Center
01:11AM 34.1953 -114.7639 264° West 409 471 33,900  Level Los Angeles Center
01:12AM 34.1842 -114.9053 265° West 419 482 34,000  Climbing Los Angeles Center
01:13AM 34.1747 -115.0178 264° West 422 486 34,000  Level Los Angeles Center
01:14AM 34.1536 -115.1889 262° West 429 494 34,000  Level Los Angeles Center
01:15AM 34.1322 -115.3286 260° West 427 491 34,000 -60 Level Los Angeles Center
01:16AM 34.1122 -115.4664 260° West 421 484 33,900 -60 Descending Los Angeles Center
01:17AM 34.0900 -115.6053 259° West 423 487 33,900  Level Los Angeles Center
01:18AM 34.0639 -115.7711 259° West 423 487 33,900 -360 Level Los Angeles Center
01:19AM 34.0422 -115.9108 259° West 425 489 33,200 -2,580 Descending Los Angeles Center
01:20AM 34.0203 -116.0483 259° West 421 484 28,800 -3,420 Descending Los Angeles Center
01:21AM 33.9986 -116.1853 259° West 418 481 26,300 -2,460 Descending Los Angeles Center
01:22AM 33.9758 -116.3225 259° West 421 484 23,900 -2,340 Descending Los Angeles Center
01:23AM 33.9528 -116.4681 259° West 439 505 21,600 -2,160 Descending Los Angeles Center
01:24AM 33.9286 -116.6097 258° West 436 502 19,500 -2,280 Descending Los Angeles Center
01:25AM 33.9061 -116.7458 259° West 422 486 17,000 -3,000 Descending Los Angeles Center
01:26AM 33.8828 -116.9000 260° West 398 458 13,400 -2,760 Descending Los Angeles Center
01:27AM 33.8644 -117.0203 260° West 374 430 11,400 -1,380 Descending Los Angeles Center
01:28AM 33.8536 -117.1042 261° West 312 359 10,600 -840 Descending Los Angeles Center
01:29AM 33.8364 -117.2158 260° West 286 329 9,700 -780 Descending Los Angeles Center
01:30AM 33.8261 -117.2964 261° West 252 290 9,100 -720 Descending Los Angeles Center
01:31AM 33.8142 -117.3686 259° West 229 264 8,300 -540 Descending Los Angeles Center
01:32AM 33.8036 -117.4389 260° West 217 250 8,000 -180 Descending Los Angeles Center
01:33AM 33.7936 -117.5089 260° West 215 247 8,000 -660 Level Los Angeles Center
01:34AM 33.7831 -117.5781 260° West 212 244 6,700 -840 Descending Los Angeles Center
01:35AM 33.7794 -117.6475 266° West 210 242 6,400 -1,140 Descending Los Angeles Center
01:36AM 33.7833 -117.7000 275° West 207 238 5,000 -1,860 Descending Southern California TRACON
01:37AM 33.7667 -117.7500 248° West 187 215 3,600 -1,380 Descending Southern California TRACON
01:38AM 33.7500 -117.8000 248° West 152 175 2,300 -1,380 Descending Southern California TRACON
01:39AM 33.7167 -117.8333 220° Southwest 143 165 900 8,400 Descending Southern California TRACON
01:40AM 33.6772 -117.8664 215° Southwest 143 165 24,000 14,700 Climbing Los Angeles Center
01:42AM 33.6757 -117.8682 132° Southeast  Level Estimated
01:49AM 33.6757 -117.8682 132° Southeast  Level Estimated